createdAt,value
2022-08-26T00:04:29.392Z,25.30
2022-08-26T00:09:54.447Z,25.30
2022-08-26T00:15:19.877Z,25.29
2022-08-26T00:20:42.223Z,25.28
2022-08-26T00:26:05.663Z,25.28
2022-08-26T00:31:31.241Z,25.26
2022-08-26T00:36:53.106Z,25.25
2022-08-26T00:42:14.888Z,25.25
2022-08-26T00:47:44.160Z,25.26
2022-08-26T00:53:24.168Z,25.23
2022-08-26T00:58:50.895Z,25.22
2022-08-26T01:04:15.538Z,25.22
2022-08-26T01:09:39.736Z,25.19
2022-08-26T01:15:02.928Z,25.19
2022-08-26T01:20:51.449Z,25.19
2022-08-26T01:26:19.940Z,25.17
2022-08-26T01:31:55.621Z,25.19
2022-08-26T01:37:20.783Z,25.16
2022-08-26T01:42:43.904Z,25.16
2022-08-26T01:48:11.846Z,25.16
2022-08-26T01:53:38.487Z,25.14
2022-08-26T01:59:07.820Z,25.12
2022-08-26T02:04:37.631Z,25.13
2022-08-26T02:09:59.397Z,25.13
2022-08-26T02:15:21.273Z,25.11
2022-08-26T02:20:43.574Z,25.11
2022-08-26T02:26:19.254Z,25.12
2022-08-26T02:31:41.147Z,25.09
2022-08-26T02:37:07.643Z,25.10
2022-08-26T02:42:29.325Z,25.10
2022-08-26T02:47:52.382Z,25.09
2022-08-26T02:53:15.287Z,25.10
2022-08-26T02:58:37.193Z,25.10
2022-08-26T03:04:00.558Z,25.09
2022-08-26T03:09:22.462Z,25.08
2022-08-26T03:14:45.315Z,25.08
2022-08-26T03:20:10.717Z,25.08
2022-08-26T03:25:35.262Z,25.07
2022-08-26T03:30:58.081Z,25.06
2022-08-26T03:36:20.196Z,25.06
2022-08-26T03:41:44.295Z,25.05
2022-08-26T03:47:07.719Z,25.04
2022-08-26T03:52:31.225Z,25.05
2022-08-26T03:57:53.375Z,25.04
2022-08-26T04:03:35.031Z,25.03
2022-08-26T04:08:58.564Z,25.03
2022-08-26T04:14:23.160Z,25.01
2022-08-26T04:19:44.950Z,25.00
2022-08-26T04:25:07.766Z,25.01
2022-08-26T04:30:29.466Z,24.99
2022-08-26T04:35:58.762Z,24.98
2022-08-26T04:41:20.490Z,24.98
2022-08-26T04:46:43.753Z,24.97
2022-08-26T04:52:05.959Z,24.96
2022-08-26T04:57:27.655Z,24.96
2022-08-26T05:02:49.454Z,24.95
2022-08-26T05:08:15.208Z,24.96
2022-08-26T05:13:39.217Z,24.95
2022-08-26T05:19:01.668Z,24.95
2022-08-26T05:24:23.615Z,24.95
2022-08-26T05:29:45.364Z,24.93
2022-08-26T05:35:08.983Z,24.94
2022-08-26T05:40:35.362Z,24.95
2022-08-26T05:45:57.667Z,24.94
2022-08-26T05:51:22.801Z,24.94
2022-08-26T05:56:47.546Z,24.95
2022-08-26T06:02:10.971Z,24.96
2022-08-26T06:08:02.966Z,24.96
2022-08-26T06:13:27.599Z,24.97
2022-08-26T06:18:54.412Z,24.98
2022-08-26T06:24:35.512Z,24.99
2022-08-26T06:29:58.525Z,24.99
2022-08-26T06:35:20.226Z,25.00
2022-08-26T06:40:45.575Z,25.02
2022-08-26T06:46:09.583Z,24.98
2022-08-26T06:51:36.352Z,24.92
2022-08-26T06:56:58.659Z,24.86
2022-08-26T07:02:20.812Z,24.84
2022-08-26T07:07:42.630Z,24.82
2022-08-26T07:13:05.838Z,24.82
2022-08-26T07:18:29.668Z,24.81
2022-08-26T07:23:51.949Z,24.81
2022-08-26T07:29:14.969Z,24.83
2022-08-26T07:34:39.810Z,24.88
2022-08-26T07:40:05.060Z,24.90
2022-08-26T07:45:26.784Z,24.87
2022-08-26T07:50:50.044Z,24.87
2022-08-26T07:56:12.290Z,24.85
2022-08-26T08:01:34.508Z,24.84
2022-08-26T08:07:00.653Z,24.84
2022-08-26T08:12:22.886Z,24.85
2022-08-26T08:17:44.691Z,24.82
2022-08-26T08:23:06.573Z,24.79
2022-08-26T08:28:29.116Z,24.78
2022-08-26T08:33:50.844Z,24.75
2022-08-26T08:39:14.153Z,24.72
2022-08-26T08:44:41.078Z,24.70
2022-08-26T08:50:13.208Z,24.70
2022-08-26T08:56:00.892Z,24.68
2022-08-26T09:01:36.928Z,24.69
2022-08-26T09:07:01.261Z,24.68
2022-08-26T09:12:29.818Z,24.70
2022-08-26T09:18:14.692Z,24.72
2022-08-26T09:23:41.863Z,24.72
2022-08-26T09:29:41.076Z,24.72
2022-08-26T09:35:08.226Z,24.73
2022-08-26T09:40:35.409Z,24.77
2022-08-26T09:46:28.729Z,24.81
2022-08-26T09:52:23.837Z,24.83
2022-08-26T09:57:55.768Z,24.85
2022-08-26T10:03:33.723Z,24.88
2022-08-26T10:08:59.215Z,24.88
2022-08-26T10:14:31.243Z,24.87
2022-08-26T10:20:22.911Z,24.87
2022-08-26T10:26:00.612Z,24.87
2022-08-26T10:31:44.861Z,24.88
2022-08-26T10:37:16.231Z,24.95
2022-08-26T10:42:42.952Z,24.99
2022-08-26T10:48:17.450Z,25.05
2022-08-26T10:53:44.423Z,25.05
2022-08-26T10:59:18.192Z,25.05
2022-08-26T11:04:59.006Z,25.03
2022-08-26T11:10:23.021Z,25.03
2022-08-26T11:15:54.438Z,25.04
2022-08-26T11:22:11.176Z,25.03
2022-08-26T11:27:36.449Z,25.01
2022-08-26T11:32:59.320Z,25.00
2022-08-26T11:38:32.537Z,25.03
2022-08-26T11:43:54.625Z,25.00
2022-08-26T11:49:17.524Z,25.02
2022-08-26T11:54:39.594Z,25.03
2022-08-26T12:00:02.647Z,25.01
2022-08-26T12:05:31.097Z,24.99
2022-08-26T12:11:09.261Z,24.99
2022-08-26T12:16:40.677Z,25.01
2022-08-26T12:22:22.374Z,25.06
2022-08-26T12:27:45.665Z,25.08
2022-08-26T12:33:22.146Z,25.12
2022-08-26T12:38:44.905Z,25.13
2022-08-26T12:44:06.597Z,25.15
2022-08-26T12:49:28.359Z,25.15
2022-08-26T12:54:59.201Z,25.16
2022-08-26T13:00:39.612Z,25.15
2022-08-26T13:06:16.426Z,25.13
2022-08-26T13:11:40.907Z,25.12
2022-08-26T13:17:03.214Z,25.12
2022-08-26T13:22:26.771Z,25.11
2022-08-26T13:27:49.318Z,25.10
2022-08-26T13:33:12.353Z,25.09
2022-08-26T13:38:36.702Z,25.09
2022-08-26T13:43:59.646Z,25.08
2022-08-26T13:49:22.348Z,25.05
2022-08-26T13:54:44.089Z,25.04
2022-08-26T14:00:06.585Z,25.06
2022-08-26T14:05:33.491Z,25.08
2022-08-26T14:10:55.334Z,25.11
2022-08-26T14:16:27.363Z,25.14
2022-08-26T14:21:49.184Z,25.13
2022-08-26T14:27:11.901Z,25.14
2022-08-26T14:32:34.476Z,25.16
2022-08-26T14:37:57.247Z,25.18
2022-08-26T14:43:18.989Z,25.18
2022-08-26T14:48:40.717Z,25.18
2022-08-26T14:54:11.974Z,25.19
2022-08-26T14:59:39.806Z,25.18
2022-08-26T15:05:02.776Z,25.17
2022-08-26T15:10:24.609Z,25.15
2022-08-26T15:15:47.114Z,25.17
2022-08-26T15:21:08.901Z,25.16
2022-08-26T15:26:32.054Z,25.15
2022-08-26T15:31:57.211Z,25.14
2022-08-26T15:37:19.432Z,25.13
2022-08-26T15:42:41.174Z,25.12
2022-08-26T15:48:03.602Z,25.10
2022-08-26T15:53:26.776Z,25.09
2022-08-26T15:58:49.162Z,25.08
2022-08-26T16:04:11.724Z,25.07
2022-08-26T16:09:33.610Z,25.06
2022-08-26T16:14:55.308Z,25.04
2022-08-26T16:20:17.336Z,25.03
2022-08-26T16:25:39.047Z,25.03
2022-08-26T16:31:00.799Z,25.03
2022-08-26T16:36:22.605Z,25.04
2022-08-26T16:41:44.637Z,25.06
2022-08-26T16:47:06.581Z,25.06
2022-08-26T16:52:28.401Z,25.06
2022-08-26T16:57:53.178Z,25.03
2022-08-26T17:03:15.938Z,25.05
2022-08-26T17:08:39.111Z,25.07
2022-08-26T17:14:01.261Z,25.05
2022-08-26T17:19:23.112Z,25.05
2022-08-26T17:24:44.935Z,25.05
2022-08-26T17:30:07.381Z,25.04
2022-08-26T17:35:29.117Z,25.02
2022-08-26T17:40:51.167Z,25.01
2022-08-26T17:46:13.267Z,25.00
2022-08-26T17:51:35.339Z,24.98
2022-08-26T17:56:57.316Z,24.98
2022-08-26T18:02:19.506Z,24.96
2022-08-26T18:07:43.719Z,24.95
2022-08-26T18:13:06.084Z,24.95
2022-08-26T18:18:27.813Z,24.94
2022-08-26T18:23:51.085Z,24.92
2022-08-26T18:29:12.790Z,24.90
2022-08-26T18:34:35.892Z,24.86
2022-08-26T18:39:58.663Z,24.87
2022-08-26T18:45:20.593Z,24.90
2022-08-26T18:50:46.970Z,24.87
2022-08-26T18:56:09.128Z,24.86
2022-08-26T19:01:34.314Z,24.86
2022-08-26T19:06:56.270Z,24.85
2022-08-26T19:12:17.995Z,24.87
2022-08-26T19:17:39.962Z,24.87
2022-08-26T19:23:05.788Z,24.90
2022-08-26T19:28:32.734Z,24.87
2022-08-26T19:33:54.578Z,24.85
2022-08-26T19:39:16.371Z,24.84
2022-08-26T19:44:56.839Z,24.87
2022-08-26T19:50:18.651Z,24.88
2022-08-26T19:55:40.341Z,24.91
2022-08-26T20:01:02.246Z,24.90
2022-08-26T20:06:24.283Z,24.92
2022-08-26T20:11:46.022Z,24.92
2022-08-26T20:17:07.939Z,24.92
2022-08-26T20:22:30.528Z,24.91
2022-08-26T20:27:52.332Z,24.93
2022-08-26T20:33:14.080Z,24.92
2022-08-26T20:38:36.688Z,24.93
2022-08-26T20:43:58.812Z,24.92
2022-08-26T20:49:20.576Z,24.92
2022-08-26T20:54:42.342Z,24.90
2022-08-26T21:00:06.246Z,24.88
2022-08-26T21:05:27.983Z,24.86
2022-08-26T21:10:51.365Z,24.86
2022-08-26T21:16:14.392Z,24.85
2022-08-26T21:21:36.623Z,24.84
2022-08-26T21:26:58.637Z,24.84
2022-08-26T21:32:20.554Z,24.82
2022-08-26T21:37:42.306Z,24.79
2022-08-26T21:43:04.536Z,24.79
2022-08-26T21:48:33.218Z,24.79
2022-08-26T21:53:57.928Z,24.79
2022-08-26T21:59:19.838Z,24.76
2022-08-26T22:04:44.554Z,24.72
2022-08-26T22:10:08.757Z,24.68
2022-08-26T22:15:33.128Z,24.65
2022-08-26T22:21:00.838Z,24.63
2022-08-26T22:26:25.907Z,24.61
2022-08-26T22:31:47.717Z,24.55
2022-08-26T22:37:09.520Z,24.54
2022-08-26T22:42:31.302Z,24.51
2022-08-26T22:47:53.082Z,24.50
2022-08-26T22:53:17.107Z,24.49
2022-08-26T22:58:39.184Z,24.46
2022-08-26T23:04:01.316Z,24.45
2022-08-26T23:09:23.020Z,24.42
2022-08-26T23:14:44.776Z,24.41
2022-08-26T23:20:10.421Z,24.39
2022-08-26T23:25:32.930Z,24.38
2022-08-26T23:30:54.744Z,24.37
2022-08-26T23:36:17.881Z,24.35
2022-08-26T23:41:39.965Z,24.35
2022-08-26T23:47:02.303Z,24.34
2022-08-26T23:52:42.792Z,24.34
2022-08-26T23:58:05.316Z,24.33
